createdAt,value
2022-11-21T00:01:18.318Z,99638.89
2022-11-21T00:04:48.975Z,99648.20
2022-11-21T00:08:19.933Z,99645.71
2022-11-21T00:11:53.276Z,99641.30
2022-11-21T00:15:20.863Z,99636.91
2022-11-21T00:18:48.499Z,99634.89
2022-11-21T00:22:16.482Z,99635.07
2022-11-21T00:25:44.364Z,99639.02
2022-11-21T00:29:15.497Z,99638.16
2022-11-21T00:32:44.694Z,99634.89
2022-11-21T00:36:13.541Z,99629.55
2022-11-21T00:39:41.522Z,99628.96
2022-11-21T00:43:45.996Z,99626.77
2022-11-21T00:47:13.271Z,99628.43
2022-11-21T00:50:40.201Z,99624.67
2022-11-21T00:54:07.840Z,99617.69
2022-11-21T00:57:35.201Z,99620.65
2022-11-21T01:01:11.049Z,99621.27
2022-11-21T01:04:38.855Z,99616.98
2022-11-21T01:08:06.035Z,99611.13
2022-11-21T01:11:33.452Z,99608.70
2022-11-21T01:15:00.169Z,99607.30
2022-11-21T01:18:32.750Z,99612.23
2022-11-21T01:22:05.920Z,99618.03
2022-11-21T01:25:34.843Z,99612.92
2022-11-21T01:29:01.932Z,99618.84
2022-11-21T01:32:29.549Z,99624.63
2022-11-21T01:35:56.591Z,99631.92
2022-11-21T01:39:26.216Z,99639.52
2022-11-21T01:43:05.872Z,99634.70
2022-11-21T01:46:33.657Z,99626.95
2022-11-21T01:50:01.430Z,99630.58
2022-11-21T01:53:34.114Z,99636.59
2022-11-21T01:57:09.343Z,99648.20
2022-11-21T02:00:42.264Z,99650.29
2022-11-21T02:04:17.107Z,99645.02
2022-11-21T02:07:47.056Z,99636.34
2022-11-21T02:11:24.869Z,99630.02
2022-11-21T02:14:53.459Z,99635.61
2022-11-21T02:18:20.684Z,99641.94
2022-11-21T02:21:56.472Z,99646.24
2022-11-21T02:25:26.015Z,99645.29
2022-11-21T02:28:53.103Z,99641.48
2022-11-21T02:32:27.821Z,99645.64
2022-11-21T02:36:03.581Z,99641.10
2022-11-21T02:39:35.367Z,99640.15
2022-11-21T02:43:10.405Z,99643.95
2022-11-21T02:46:38.030Z,99641.82
2022-11-21T02:50:12.231Z,99640.16
2022-11-21T02:53:39.797Z,99639.85
2022-11-21T02:57:07.598Z,99635.81
2022-11-21T03:00:36.472Z,99634.48
2022-11-21T03:04:03.712Z,99634.33
2022-11-21T03:07:32.721Z,99639.80
2022-11-21T03:10:59.939Z,99634.08
2022-11-21T03:14:26.968Z,99631.55
2022-11-21T03:17:54.428Z,99628.33
2022-11-21T03:21:21.701Z,99622.88
2022-11-21T03:24:49.213Z,99623.88
2022-11-21T03:28:16.850Z,99623.70
2022-11-21T03:31:43.846Z,99621.80
2022-11-21T03:35:11.561Z,99624.15
2022-11-21T03:38:38.250Z,99623.48
2022-11-21T03:42:05.471Z,99624.15
2022-11-21T03:45:32.423Z,99622.64
2022-11-21T03:49:00.651Z,99623.37
2022-11-21T03:52:28.043Z,99617.63
2022-11-21T03:55:54.848Z,99615.80
2022-11-21T03:59:21.546Z,99614.98
2022-11-21T04:02:48.317Z,99611.11
2022-11-21T04:06:16.395Z,99613.71
2022-11-21T04:09:42.736Z,99611.55
2022-11-21T04:13:09.412Z,99613.48
2022-11-21T04:16:36.363Z,99613.33
2022-11-21T04:20:04.535Z,99613.87
2022-11-21T04:23:31.900Z,99617.27
2022-11-21T04:26:58.638Z,99610.18
2022-11-21T04:30:25.021Z,99610.20
2022-11-21T04:33:51.454Z,99605.96
2022-11-21T04:37:18.066Z,99603.27
2022-11-21T04:40:48.547Z,99601.75
2022-11-21T04:44:15.441Z,99601.77
2022-11-21T04:47:43.194Z,99596.02
2022-11-21T04:51:10.268Z,99595.52
2022-11-21T04:54:37.183Z,99586.38
2022-11-21T04:58:03.760Z,99583.33
2022-11-21T05:01:30.760Z,99585.20
2022-11-21T05:04:58.260Z,99587.75
2022-11-21T05:08:25.143Z,99585.88
2022-11-21T05:12:09.841Z,99585.05
2022-11-21T05:15:36.481Z,99580.92
2022-11-21T05:19:03.081Z,99575.82
2022-11-21T05:22:30.134Z,99576.65
2022-11-21T05:25:56.788Z,99576.95
2022-11-21T05:29:28.036Z,99571.31
2022-11-21T05:32:56.320Z,99567.08
2022-11-21T05:36:23.081Z,99569.28
2022-11-21T05:39:49.473Z,99566.90
2022-11-21T05:43:34.685Z,99568.77
2022-11-21T05:47:01.533Z,99574.20
2022-11-21T05:50:28.387Z,99571.81
2022-11-21T05:53:55.551Z,99570.27
2022-11-21T05:57:22.510Z,99563.78
2022-11-21T06:00:49.599Z,99560.55
2022-11-21T06:04:16.815Z,99560.68
2022-11-21T06:07:43.943Z,99560.84
2022-11-21T06:11:14.566Z,99560.14
2022-11-21T06:14:41.405Z,99553.50
2022-11-21T06:18:08.043Z,99556.88
2022-11-21T06:21:37.501Z,99558.90
2022-11-21T06:25:03.954Z,99561.75
2022-11-21T06:28:32.554Z,99559.31
2022-11-21T06:31:59.316Z,99561.32
2022-11-21T06:35:26.179Z,99570.45
2022-11-21T06:38:54.259Z,99566.48
2022-11-21T06:42:21.111Z,99565.58
2022-11-21T06:45:47.860Z,99569.23
2022-11-21T06:49:14.770Z,99567.34
2022-11-21T06:52:42.190Z,99563.56
2022-11-21T06:56:09.073Z,99562.14
2022-11-21T06:59:36.035Z,99558.02
2022-11-21T07:03:05.239Z,99555.83
2022-11-21T07:06:35.365Z,99556.64
2022-11-21T07:10:02.115Z,99559.17
2022-11-21T07:13:30.600Z,99561.38
2022-11-21T07:16:57.268Z,99563.91
2022-11-21T07:20:24.224Z,99566.26
2022-11-21T07:23:50.872Z,99570.48
2022-11-21T07:27:18.716Z,99574.20
2022-11-21T07:30:45.753Z,99575.38
2022-11-21T07:34:13.234Z,99573.28
2022-11-21T07:37:42.468Z,99571.58
2022-11-21T07:41:09.013Z,99564.73
2022-11-21T07:44:36.073Z,99555.28
2022-11-21T07:48:03.979Z,99553.48
2022-11-21T07:51:31.991Z,99549.61
2022-11-21T07:54:59.416Z,99554.39
2022-11-21T07:58:26.327Z,99552.86
2022-11-21T08:01:53.962Z,99555.20
2022-11-21T08:05:20.829Z,99556.30
2022-11-21T08:08:48.449Z,99558.27
2022-11-21T08:12:15.937Z,99563.69
2022-11-21T08:15:42.886Z,99570.48
2022-11-21T08:19:09.541Z,99568.77
2022-11-21T08:22:39.040Z,99573.23
2022-11-21T08:26:06.137Z,99578.95
2022-11-21T08:29:33.359Z,99579.23
2022-11-21T08:33:01.284Z,99573.39
2022-11-21T08:36:28.328Z,99575.29
2022-11-21T08:39:55.350Z,99574.13
2022-11-21T08:43:22.198Z,99576.70
2022-11-21T08:46:48.826Z,99580.44
2022-11-21T08:50:16.449Z,99578.02
2022-11-21T08:53:43.065Z,99577.83
2022-11-21T08:57:09.538Z,99577.95
2022-11-21T09:00:36.518Z,99576.72
2022-11-21T09:04:03.598Z,99575.69
2022-11-21T09:07:30.767Z,99572.07
2022-11-21T09:10:59.047Z,99572.70
2022-11-21T09:14:43.920Z,99571.12
2022-11-21T09:18:12.573Z,99564.17
2022-11-21T09:21:39.289Z,99572.73
2022-11-21T09:25:06.683Z,99564.28
2022-11-21T09:28:33.352Z,99563.59
2022-11-21T09:32:00.217Z,99565.64
2022-11-21T09:35:30.511Z,99566.69
2022-11-21T09:38:59.906Z,99566.54
2022-11-21T09:42:54.563Z,99567.33
2022-11-21T09:46:27.811Z,99562.36
2022-11-21T09:49:58.620Z,99564.05
2022-11-21T09:53:31.875Z,99567.62
2022-11-21T09:57:02.436Z,99572.21
2022-11-21T10:00:29.526Z,99568.28
2022-11-21T10:04:28.172Z,99567.95
2022-11-21T10:08:01.442Z,99567.96
2022-11-21T10:11:59.207Z,99567.34
2022-11-21T10:15:44.413Z,99559.77
2022-11-21T10:19:50.875Z,99555.52
2022-11-21T10:23:35.812Z,99546.50
2022-11-21T10:27:13.550Z,99546.50
2022-11-21T10:30:47.918Z,99544.63
2022-11-21T10:34:19.176Z,99541.04
2022-11-21T10:37:51.646Z,99531.88
2022-11-21T10:41:26.035Z,99530.67
2022-11-21T10:45:11.053Z,99533.52
2022-11-21T10:48:39.708Z,99534.11
2022-11-21T10:52:16.383Z,99530.68
2022-11-21T10:56:01.676Z,99529.30
2022-11-21T10:59:33.325Z,99528.96
2022-11-21T11:03:07.373Z,99525.73
2022-11-21T11:06:32.563Z,99517.23
2022-11-21T11:10:27.562Z,99517.03
2022-11-21T11:14:00.680Z,99516.47
2022-11-21T11:17:33.121Z,99514.98
2022-11-21T11:21:15.429Z,99513.00
2022-11-21T11:24:57.624Z,99513.77
2022-11-21T11:28:34.994Z,99510.55
2022-11-21T11:32:05.147Z,99515.91
2022-11-21T11:35:36.070Z,99515.17
2022-11-21T11:39:08.155Z,99510.81
2022-11-21T11:46:52.524Z,99498.94
2022-11-21T11:50:24.379Z,99497.27
2022-11-21T11:53:59.904Z,99494.59
2022-11-21T11:57:38.563Z,99496.40
2022-11-21T12:01:12.883Z,99492.04
2022-11-21T12:04:47.323Z,99490.21
2022-11-21T12:12:18.003Z,99500.14
2022-11-21T12:15:54.554Z,99506.64
2022-11-21T12:19:25.202Z,99503.50
2022-11-21T12:22:55.490Z,99501.63
2022-11-21T12:26:52.629Z,99500.17
2022-11-21T12:30:54.425Z,99508.16
2022-11-21T12:34:38.469Z,99518.82
2022-11-21T12:38:30.505Z,99517.55
2022-11-21T12:42:19.369Z,99513.89
2022-11-21T12:45:52.413Z,99512.10
2022-11-21T12:49:54.401Z,99511.65
2022-11-21T12:53:49.876Z,99503.08
2022-11-21T12:57:18.307Z,99496.58
2022-11-21T13:01:03.143Z,99499.23
2022-11-21T13:04:36.726Z,99501.92
2022-11-21T13:08:07.680Z,99507.45
2022-11-21T13:12:01.004Z,99510.71
2022-11-21T13:15:38.466Z,99511.55
2022-11-21T13:19:17.595Z,99523.61
2022-11-21T13:23:28.878Z,99514.35
2022-11-21T13:26:58.489Z,99507.63
2022-11-21T13:30:28.904Z,99512.33
2022-11-21T13:33:56.757Z,99510.84
2022-11-21T13:37:54.593Z,99500.13
2022-11-21T13:42:22.197Z,99504.46
2022-11-21T13:45:50.789Z,99515.15
2022-11-21T13:49:22.733Z,99517.23
2022-11-21T13:52:57.599Z,99521.07
2022-11-21T13:56:37.465Z,99524.77
2022-11-21T14:00:22.048Z,99522.84
2022-11-21T14:04:16.333Z,99521.94
2022-11-21T14:07:45.328Z,99524.70
2022-11-21T14:11:37.259Z,99521.58
2022-11-21T14:15:27.676Z,99519.48
2022-11-21T14:18:55.292Z,99521.44
2022-11-21T14:22:34.754Z,99521.85
2022-11-21T14:26:06.366Z,99521.79
2022-11-21T14:29:42.924Z,99529.38
2022-11-21T14:33:34.524Z,99526.31
2022-11-21T14:37:05.408Z,99533.57
2022-11-21T14:40:32.562Z,99534.37
2022-11-21T14:44:18.863Z,99537.39
2022-11-21T14:47:54.499Z,99538.13
2022-11-21T14:51:27.816Z,99540.25
2022-11-21T14:55:28.128Z,99540.11
2022-11-21T14:58:43.751Z,99540.17
2022-11-21T15:02:17.781Z,99536.89
2022-11-21T15:06:01.752Z,99533.94
2022-11-21T15:13:45.175Z,99536.84
2022-11-21T15:17:18.782Z,99540.52
2022-11-21T15:20:50.329Z,99537.71
2022-11-21T15:24:29.382Z,99540.85
2022-11-21T15:28:11.808Z,99545.52
2022-11-21T15:31:38.891Z,99545.60
2022-11-21T15:35:40.570Z,99547.36
2022-11-21T15:39:14.666Z,99542.14
2022-11-21T15:42:42.373Z,99540.65
2022-11-21T15:46:17.635Z,99543.42
2022-11-21T15:49:44.440Z,99543.38
2022-11-21T15:53:21.658Z,99539.50
2022-11-21T15:56:49.914Z,99535.17
2022-11-21T16:00:19.566Z,99529.80
2022-11-21T16:03:49.991Z,99529.42
2022-11-21T16:07:18.675Z,99525.41
2022-11-21T16:10:45.888Z,99530.46
2022-11-21T16:14:17.308Z,99528.79
2022-11-21T16:17:47.376Z,99522.86
2022-11-21T16:21:15.410Z,99521.50
2022-11-21T16:24:43.009Z,99525.49
2022-11-21T16:28:12.851Z,99529.06
2022-11-21T16:31:40.114Z,99529.53
2022-11-21T16:35:10.943Z,99525.23
2022-11-21T16:38:39.815Z,99528.36
2022-11-21T16:42:11.722Z,99531.02
2022-11-21T16:45:41.522Z,99528.98
2022-11-21T16:49:09.272Z,99529.76
2022-11-21T16:52:42.293Z,99535.41
2022-11-21T16:56:12.158Z,99534.00
2022-11-21T16:59:41.957Z,99536.70
2022-11-21T17:03:11.700Z,99530.63
2022-11-21T17:06:41.072Z,99531.54
2022-11-21T17:10:09.386Z,99529.63
2022-11-21T17:13:36.648Z,99524.80
2022-11-21T17:17:03.755Z,99524.23
2022-11-21T17:20:30.759Z,99525.91
2022-11-21T17:23:57.729Z,99527.39
2022-11-21T17:27:29.657Z,99525.44
2022-11-21T17:30:57.327Z,99528.02
2022-11-21T17:34:28.424Z,99527.32
2022-11-21T17:38:02.167Z,99527.81
2022-11-21T17:41:33.194Z,99528.35
2022-11-21T17:45:00.273Z,99525.70
2022-11-21T17:48:32.576Z,99522.84
2022-11-21T17:52:01.898Z,99530.55
2022-11-21T17:55:28.858Z,99533.52
2022-11-21T17:58:56.751Z,99535.12
2022-11-21T18:02:27.471Z,99536.27
2022-11-21T18:06:05.150Z,99526.88
2022-11-21T18:09:34.910Z,99524.77
2022-11-21T18:13:10.952Z,99524.67
2022-11-21T18:16:52.793Z,99522.91
2022-11-21T18:20:21.326Z,99519.52
2022-11-21T18:23:48.394Z,99514.92
2022-11-21T18:27:15.990Z,99515.61
2022-11-21T18:30:45.269Z,99513.56
2022-11-21T18:34:13.240Z,99513.61
2022-11-21T18:37:44.848Z,99515.10
2022-11-21T18:41:18.902Z,99519.71
2022-11-21T18:44:47.081Z,99520.31
2022-11-21T18:48:17.113Z,99526.70
2022-11-21T18:51:48.100Z,99521.13
2022-11-21T18:55:25.257Z,99529.23
2022-11-21T18:58:58.769Z,99528.19
2022-11-21T19:02:28.493Z,99533.79
2022-11-21T19:05:56.575Z,99538.80
2022-11-21T19:09:26.912Z,99544.63
2022-11-21T19:13:01.772Z,99548.44
2022-11-21T19:16:34.570Z,99547.93
2022-11-21T19:20:02.279Z,99550.52
2022-11-21T19:23:30.111Z,99549.33
2022-11-21T19:27:03.257Z,99554.15
2022-11-21T19:30:32.763Z,99563.06
2022-11-21T19:34:09.482Z,99565.00
2022-11-21T19:37:37.851Z,99564.70
2022-11-21T19:41:16.847Z,99563.98
2022-11-21T19:44:46.648Z,99564.75
2022-11-21T19:48:24.640Z,99569.27
2022-11-21T19:51:52.612Z,99576.02
2022-11-21T19:55:26.509Z,99573.64
2022-11-21T19:59:03.694Z,99577.09
2022-11-21T20:02:34.486Z,99576.08
2022-11-21T20:06:08.044Z,99583.98
2022-11-21T20:09:38.251Z,99583.05
2022-11-21T20:13:05.237Z,99581.19
2022-11-21T20:16:35.102Z,99589.05
2022-11-21T20:20:07.698Z,99587.99
2022-11-21T20:23:35.283Z,99596.30
2022-11-21T20:27:06.831Z,99601.10
2022-11-21T20:30:35.328Z,99606.42
2022-11-21T20:34:06.101Z,99613.46
2022-11-21T20:37:34.916Z,99613.52
2022-11-21T20:41:02.145Z,99617.68
2022-11-21T20:45:41.656Z,99617.08
2022-11-21T20:48:20.218Z,99623.48
2022-11-21T20:53:26.320Z,99620.67
2022-11-21T20:55:39.529Z,99612.11
2022-11-21T20:59:07.935Z,99608.20
2022-11-21T21:02:37.819Z,99606.83
2022-11-21T21:06:07.387Z,99602.71
2022-11-21T21:09:36.909Z,99598.37
2022-11-21T21:13:07.317Z,99607.33
2022-11-21T21:16:38.059Z,99611.52
2022-11-21T21:20:14.119Z,99607.94
2022-11-21T21:23:45.509Z,99609.92
2022-11-21T21:27:14.302Z,99605.52
2022-11-21T21:30:45.443Z,99606.65
2022-11-21T21:34:19.178Z,99608.45
2022-11-21T21:37:50.842Z,99602.64
2022-11-21T21:41:21.232Z,99602.66
2022-11-21T21:44:53.148Z,99606.62
2022-11-21T21:48:20.016Z,99604.30
2022-11-21T21:51:51.084Z,99604.02
2022-11-21T21:55:20.703Z,99599.02
2022-11-21T21:58:53.798Z,99597.02
2022-11-21T22:02:24.764Z,99596.20
2022-11-21T22:05:54.364Z,99597.47
2022-11-21T22:09:21.657Z,99603.14
2022-11-21T22:12:54.511Z,99599.27
2022-11-21T22:16:23.241Z,99590.80
2022-11-21T22:19:51.930Z,99593.67
2022-11-21T22:23:20.074Z,99590.53
2022-11-21T22:26:46.894Z,99596.27
2022-11-21T22:30:17.066Z,99598.51
2022-11-21T22:33:46.222Z,99600.59
2022-11-21T22:37:13.836Z,99599.71
2022-11-21T22:40:44.272Z,99583.98
2022-11-21T22:44:12.073Z,99588.44
2022-11-21T22:47:47.567Z,99587.83
2022-11-21T22:51:24.270Z,99574.02
2022-11-21T22:54:51.761Z,99578.93
2022-11-21T22:58:18.982Z,99572.66
2022-11-21T23:01:49.602Z,99577.84
2022-11-21T23:05:17.314Z,99581.65
2022-11-21T23:08:45.745Z,99592.91
2022-11-21T23:12:15.610Z,99576.73
2022-11-21T23:15:43.536Z,99594.21
2022-11-21T23:19:13.167Z,99597.32
2022-11-21T23:22:40.687Z,99591.58
2022-11-21T23:26:08.434Z,99583.98
2022-11-21T23:29:36.115Z,99584.20
2022-11-21T23:33:03.476Z,99589.66
2022-11-21T23:36:31.131Z,99594.93
2022-11-21T23:39:58.951Z,99598.88
2022-11-21T23:43:27.956Z,99599.38
2022-11-21T23:46:56.700Z,99595.41
2022-11-21T23:50:28.976Z,99592.21
2022-11-21T23:53:58.676Z,99588.40
2022-11-21T23:57:26.436Z,99591.11
